Time;durP1;ratioP1;P1;durP2;ratioP2;P2;SDS_P1;SDS_P2;PMS_P1;PMS_P2;Temp;Humidity;BMP_temperature;BMP_pressure;BME280_temperature;BME280_humidity;BME280_pressure;Samples;Min_cycle;Max_cycle;Signal;HPM_P1;HPM_P2
2022/01/03 00:00:09;;;;;;;5.03;1.97;;;;;11.30;100452.00;;;;5005408;28;20238;-69
2022/01/03 00:02:58;;;;;;;5.23;1.80;;;;;11.40;100449.00;;;;4999967;28;20232;-72
2022/01/03 00:05:45;;;;;;;7.97;2.60;;;;;11.50;100439.00;;;;5021211;28;20711;-70
2022/01/03 00:08:32;;;;;;;11.83;2.57;;;;;11.20;100453.00;;;;5015583;28;20237;-73
2022/01/03 00:11:21;;;;;;;9.97;2.30;;;;;11.20;100458.00;;;;5019799;28;20712;-69
2022/01/03 00:14:08;;;;;;;9.37;2.43;;;;;11.20;100450.00;;;;5008778;28;20233;-71
2022/01/03 00:16:54;;;;;;;9.80;2.40;;;;;11.20;100471.00;;;;5002697;28;20241;-72
2022/01/03 00:19:40;;;;;;;5.40;2.13;;;;;11.20;100459.00;;;;5000474;28;20229;-72
2022/01/03 00:22:31;;;;;;;7.20;2.70;;;;;11.30;100466.00;;;;4997570;28;20238;-71
2022/01/03 00:25:19;;;;;;;6.17;2.50;;;;;11.20;100461.00;;;;4998433;28;20241;-72
2022/01/03 00:28:14;;;;;;;10.47;3.00;;;;;11.20;100480.00;;;;4998584;28;20776;-72
2022/01/03 00:31:02;;;;;;;8.27;2.70;;;;;11.20;100471.00;;;;4997737;28;20242;-71
2022/01/03 00:33:51;;;;;;;7.27;2.40;;;;;11.30;100468.00;;;;4991048;28;20309;-72
2022/01/03 00:36:38;;;;;;;9.50;2.60;;;;;11.30;100473.00;;;;5011043;28;20237;-72
2022/01/03 00:39:25;;;;;;;7.20;2.10;;;;;11.30;100470.00;;;;5014549;28;20225;-72
2022/01/03 00:42:15;;;;;;;10.00;2.47;;;;;11.20;100482.00;;;;5029539;28;20232;-71
2022/01/03 00:45:03;;;;;;;11.13;2.70;;;;;11.20;100477.00;;;;5021849;28;20315;-71
2022/01/03 00:47:50;;;;;;;7.43;2.40;;;;;11.30;100475.00;;;;5021028;28;20271;-71
2022/01/03 00:50:37;;;;;;;8.10;2.80;;;;;11.20;100488.00;;;;5029000;28;20235;-71
2022/01/03 00:53:24;;;;;;;10.63;2.43;;;;;11.40;100481.00;;;;5009213;28;20606;-72
2022/01/03 00:56:14;;;;;;;12.90;2.70;;;;;11.30;100478.00;;;;5018124;28;20276;-72
2022/01/03 00:59:06;;;;;;;16.90;2.93;;;;;11.30;100478.00;;;;5006795;28;20229;-71
2022/01/03 01:01:55;;;;;;;9.97;2.60;;;;;11.30;100491.00;;;;4996797;28;20245;-71
2022/01/03 01:04:45;;;;;;;7.00;2.40;;;;;11.20;100494.00;;;;5000772;28;20234;-72
2022/01/03 01:07:33;;;;;;;11.70;2.80;;;;;11.30;100477.00;;;;5008741;28;20788;-74
2022/01/03 01:10:19;;;;;;;9.40;2.50;;;;;11.30;100486.00;;;;5011554;28;20234;-71
2022/01/03 01:13:10;;;;;;;10.50;2.67;;;;;11.30;100486.00;;;;5005082;28;20245;-68
2022/01/03 01:15:57;;;;;;;6.27;2.20;;;;;11.40;100490.00;;;;5005811;28;20241;-71
2022/01/03 01:18:46;;;;;;;9.03;2.97;;;;;11.30;100492.00;;;;4996202;28;20296;-71
2022/01/03 01:21:33;;;;;;;13.23;2.60;;;;;11.30;100486.00;;;;4997312;28;20824;-69
2022/01/03 01:24:22;;;;;;;7.33;2.43;;;;;11.30;100476.00;;;;5001115;28;20230;-70
2022/01/03 01:30:13;;;;;;;8.80;2.80;;;;;11.30;100497.00;;;;5000680;28;20238;-72
2022/01/03 01:33:03;;;;;;;14.37;3.07;;;;;11.30;100496.00;;;;5004727;28;20863;-72
2022/01/03 01:35:56;;;;;;;10.33;2.93;;;;;11.30;100507.00;;;;5000838;28;20244;-71
2022/01/03 01:38:46;;;;;;;11.37;2.50;;;;;11.40;100507.00;;;;5003685;28;20233;-70
2022/01/03 01:41:37;;;;;;;12.17;2.93;;;;;11.40;100504.00;;;;5008558;28;20247;-71
2022/01/03 01:44:25;;;;;;;14.00;2.80;;;;;11.30;100514.00;;;;5012540;28;20247;-73
2022/01/03 01:47:11;;;;;;;10.40;2.93;;;;;11.30;100528.00;;;;5003260;28;20236;-71
2022/01/03 01:49:57;;;;;;;11.20;2.57;;;;;11.40;100520.00;;;;5001757;28;20381;-71
2022/01/03 01:52:46;;;;;;;11.60;2.80;;;;;11.40;100509.00;;;;4992249;28;20289;-71
2022/01/03 01:55:33;;;;;;;14.40;3.10;;;;;11.30;100518.00;;;;5006756;28;20232;-72
2022/01/03 01:58:29;;;;;;;11.17;2.73;;;;;11.30;100519.00;;;;5004298;28;20234;-72
2022/01/03 02:01:16;;;;;;;10.07;2.83;;;;;11.20;100519.00;;;;5015565;28;20237;-72
2022/01/03 02:04:15;;;;;;;12.83;3.00;;;;;11.30;100515.00;;;;5000191;28;20229;-70
2022/01/03 02:07:20;;;;;;;13.53;3.23;;;;;11.30;100526.00;;;;5004194;28;20939;-72
2022/01/03 02:10:10;;;;;;;11.80;3.20;;;;;11.30;100530.00;;;;4998466;28;20309;-72
2022/01/03 02:12:58;;;;;;;13.00;3.63;;;;;11.30;100523.00;;;;4988723;28;20252;-68
2022/01/03 02:15:49;;;;;;;16.00;3.33;;;;;11.30;100523.00;;;;5005616;28;20258;-71
2022/01/03 02:18:35;;;;;;;12.53;3.03;;;;;11.30;100527.00;;;;5009671;28;20698;-72
2022/01/03 02:21:23;;;;;;;10.33;3.40;;;;;11.20;100523.00;;;;5001120;28;20237;-71
2022/01/03 02:24:10;;;;;;;12.23;3.43;;;;;11.30;100534.00;;;;5004132;28;20688;-71
2022/01/03 02:26:56;;;;;;;10.70;3.00;;;;;11.30;100531.00;;;;5011391;28;20233;-70
2022/01/03 02:29:43;;;;;;;7.50;3.10;;;;;11.20;100533.00;;;;5007546;28;20304;-70
2022/01/03 02:32:35;;;;;;;16.87;3.90;;;;;11.20;100530.00;;;;5015268;28;20245;-72
2022/01/03 02:35:22;;;;;;;13.37;3.40;;;;;11.30;100539.00;;;;5009924;28;20694;-71
2022/01/03 02:38:10;;;;;;;10.67;3.00;;;;;11.30;100533.00;;;;5016795;28;20298;-71
2022/01/03 02:40:57;;;;;;;11.97;2.90;;;;;11.20;100531.00;;;;5010956;28;20699;-71
2022/01/03 02:43:44;;;;;;;9.33;3.20;;;;;11.30;100531.00;;;;5019581;28;20233;-69
2022/01/03 02:46:31;;;;;;;12.00;2.87;;;;;11.30;100522.00;;;;5009912;28;20253;-71
2022/01/03 02:49:17;;;;;;;10.63;3.10;;;;;11.30;100535.00;;;;5017743;28;20353;-71
2022/01/03 02:52:04;;;;;;;16.07;2.90;;;;;11.20;100542.00;;;;5016208;28;20860;-71
2022/01/03 02:54:52;;;;;;;6.50;2.47;;;;;11.20;100520.00;;;;5007387;28;20368;-68
2022/01/03 02:57:41;;;;;;;15.23;3.10;;;;;11.30;100543.00;;;;5014179;28;20888;-72
2022/01/03 03:00:30;;;;;;;10.43;2.80;;;;;11.30;100534.00;;;;5014542;28;20241;-71
2022/01/03 03:03:18;;;;;;;17.90;3.03;;;;;11.20;100549.00;;;;5011474;28;20331;-72
2022/01/03 03:06:05;;;;;;;13.33;2.90;;;;;11.10;100542.00;;;;5010804;28;20237;-69
2022/01/03 03:08:51;;;;;;;14.10;3.00;;;;;11.10;100533.00;;;;5012241;28;20240;-72
2022/01/03 03:11:39;;;;;;;10.10;2.77;;;;;11.10;100547.00;;;;5015497;28;20232;-72
2022/01/03 03:14:25;;;;;;;16.27;3.33;;;;;11.10;100547.00;;;;5018240;28;20230;-71
2022/01/03 03:17:13;;;;;;;17.53;3.07;;;;;11.00;100542.00;;;;5014038;28;20887;-71
2022/01/03 03:20:01;;;;;;;17.00;3.03;;;;;11.10;100537.00;;;;5014034;28;20244;-69
2022/01/03 03:22:49;;;;;;;12.53;2.70;;;;;11.10;100542.00;;;;5016967;28;20241;-71
2022/01/03 03:25:36;;;;;;;13.80;3.03;;;;;11.20;100537.00;;;;5016367;28;20233;-72
2022/01/03 03:28:25;;;;;;;15.17;2.60;;;;;11.20;100541.00;;;;5017853;28;20369;-72
2022/01/03 03:31:12;;;;;;;16.57;2.83;;;;;11.20;100540.00;;;;5023037;28;20683;-72
2022/01/03 03:33:58;;;;;;;12.77;2.73;;;;;11.20;100544.00;;;;5022828;28;20264;-71
2022/01/03 03:36:44;;;;;;;13.83;2.60;;;;;11.00;100552.00;;;;5020873;28;20315;-72
2022/01/03 03:39:33;;;;;;;12.23;2.43;;;;;11.10;100546.00;;;;5010815;28;20694;-70
2022/01/03 03:42:20;;;;;;;12.70;2.90;;;;;11.10;100551.00;;;;5014446;28;20301;-71
2022/01/03 03:45:09;;;;;;;15.03;2.83;;;;;11.00;100550.00;;;;5018386;28;20237;-71
2022/01/03 03:47:57;;;;;;;9.57;2.20;;;;;11.00;100559.00;;;;5016633;28;20239;-72
2022/01/03 03:50:44;;;;;;;15.13;2.40;;;;;11.00;100553.00;;;;5016696;28;20794;-70
2022/01/03 03:53:31;;;;;;;11.30;2.77;;;;;11.20;100549.00;;;;5021582;28;20271;-71
2022/01/03 03:56:17;;;;;;;15.90;2.67;;;;;11.00;100558.00;;;;5016484;28;20238;-71
2022/01/03 03:59:03;;;;;;;15.93;2.60;;;;;11.00;100556.00;;;;5017987;28;20828;-73
2022/01/03 04:01:51;;;;;;;10.57;2.57;;;;;11.10;100561.00;;;;5015806;28;20391;-72
2022/01/03 04:04:38;;;;;;;14.07;2.83;;;;;11.10;100563.00;;;;5008544;28;20300;-72
2022/01/03 04:07:24;;;;;;;12.50;2.60;;;;;11.00;100566.00;;;;5005983;28;20238;-72
2022/01/03 04:10:15;;;;;;;9.37;2.53;;;;;11.00;100564.00;;;;5016067;28;20364;-71
2022/01/03 04:13:01;;;;;;;12.53;2.50;;;;;11.00;100579.00;;;;4997395;28;20621;-73
2022/01/03 04:15:47;;;;;;;11.83;2.70;;;;;11.10;100569.00;;;;5000016;28;20234;-72
2022/01/03 04:18:35;;;;;;;13.17;2.70;;;;;11.10;100559.00;;;;5007905;28;20301;-72
2022/01/03 04:21:22;;;;;;;15.67;3.13;;;;;11.00;100567.00;;;;5011645;28;20234;-72
2022/01/03 04:24:09;;;;;;;11.60;2.33;;;;;10.90;100563.00;;;;5004403;28;20365;-72
2022/01/03 04:26:56;;;;;;;8.30;2.43;;;;;11.00;100572.00;;;;5007373;28;20236;-71
2022/01/03 04:29:42;;;;;;;10.93;2.43;;;;;11.00;100565.00;;;;5008177;28;20233;-71
2022/01/03 04:32:28;;;;;;;12.73;2.33;;;;;11.00;100565.00;;;;5007255;28;20501;-72
2022/01/03 04:35:16;;;;;;;13.37;2.60;;;;;10.90;100576.00;;;;5008946;28;20660;-72
2022/01/03 04:38:02;;;;;;;9.47;2.43;;;;;11.00;100578.00;;;;4999677;28;20314;-71
2022/01/03 04:40:48;;;;;;;12.97;2.83;;;;;11.00;100568.00;;;;4993617;28;20238;-71
2022/01/03 04:43:35;;;;;;;15.53;2.83;;;;;10.90;100575.00;;;;4992382;28;20293;-71
2022/01/03 04:46:22;;;;;;;9.00;2.57;;;;;10.80;100566.00;;;;4994491;28;20897;-72
2022/01/03 04:49:09;;;;;;;15.60;3.07;;;;;10.90;100564.00;;;;5003805;28;20249;-72
2022/01/03 04:51:57;;;;;;;18.63;2.43;;;;;10.90;100557.00;;;;5010565;28;20225;-72
2022/01/03 04:54:43;;;;;;;16.47;2.87;;;;;10.90;100554.00;;;;5018381;28;20647;-71
2022/01/03 04:57:29;;;;;;;16.67;2.63;;;;;10.90;100551.00;;;;5025379;28;20240;-71
2022/01/03 05:00:16;;;;;;;12.00;2.40;;;;;11.00;100533.00;;;;5027223;28;20229;-72
2022/01/03 05:03:02;;;;;;;10.70;2.43;;;;;10.90;100554.00;;;;5021319;28;20240;-69
2022/01/03 05:05:48;;;;;;;13.47;2.57;;;;;10.90;100557.00;;;;5025912;28;20235;-72
2022/01/03 05:08:36;;;;;;;11.40;2.37;;;;;10.80;100555.00;;;;5027018;28;20233;-71
2022/01/03 05:11:22;;;;;;;12.00;2.50;;;;;10.80;100554.00;;;;5023754;28;20331;-72
2022/01/03 05:14:08;;;;;;;13.30;2.40;;;;;10.70;100556.00;;;;5026722;28;20614;-73
2022/01/03 05:16:57;;;;;;;16.63;2.20;;;;;10.80;100552.00;;;;5020431;28;20240;-69
2022/01/03 05:19:43;;;;;;;13.07;2.30;;;;;10.80;100557.00;;;;5026775;28;20251;-72
2022/01/03 05:22:29;;;;;;;12.57;1.90;;;;;10.80;100545.00;;;;5018567;28;20718;-72
2022/01/03 05:25:17;;;;;;;6.87;2.30;;;;;10.80;100551.00;;;;5012779;28;20342;-73
2022/01/03 05:28:04;;;;;;;8.83;2.33;;;;;10.80;100543.00;;;;5021502;28;20228;-71
2022/01/03 05:30:50;;;;;;;15.60;4.00;;;;;10.80;100548.00;;;;5032789;28;20236;-68
2022/01/03 05:33:36;;;;;;;38.30;15.50;;;;;11.00;100537.00;;;;5026384;28;20236;-69
2022/01/03 05:36:23;;;;;;;11.67;2.60;;;;;11.00;100540.00;;;;5014029;28;20229;-68
2022/01/03 05:39:09;;;;;;;14.20;2.30;;;;;10.90;100536.00;;;;5016629;28;20232;-69
2022/01/03 05:41:57;;;;;;;12.37;2.27;;;;;10.90;100537.00;;;;5020629;28;20236;-70
2022/01/03 05:44:43;;;;;;;14.13;2.20;;;;;11.00;100534.00;;;;5033156;28;20827;-68
2022/01/03 05:47:30;;;;;;;9.10;2.20;;;;;10.90;100538.00;;;;5023409;28;20966;-69
2022/01/03 05:50:17;;;;;;;5.37;1.90;;;;;10.90;100537.00;;;;5026076;28;20735;-70
2022/01/03 05:53:04;;;;;;;8.57;2.07;;;;;11.10;100529.00;;;;5020646;28;20608;-69
2022/01/03 05:55:50;;;;;;;7.70;2.97;;;;;11.10;100530.00;;;;5019300;28;20364;-70
2022/01/03 05:58:38;;;;;;;5.57;1.83;;;;;11.00;100535.00;;;;5025788;28;20225;-69
2022/01/03 06:01:25;;;;;;;13.60;2.70;;;;;10.90;100524.00;;;;5023175;28;20599;-70
2022/01/03 06:04:19;;;;;;;187.57;77.03;;;;;10.90;100525.00;;;;5025870;28;20239;-70
2022/01/03 06:07:07;;;;;;;15.83;5.40;;;;;10.90;100524.00;;;;5025382;28;20241;-71
2022/01/03 06:09:53;;;;;;;13.70;2.50;;;;;10.80;100523.00;;;;5019035;28;20383;-72
2022/01/03 06:12:39;;;;;;;10.80;2.30;;;;;10.90;100514.00;;;;5025263;28;20232;-70
2022/01/03 06:15:27;;;;;;;12.10;2.50;;;;;10.80;100510.00;;;;5025449;28;20773;-71
2022/01/03 06:18:15;;;;;;;44.60;18.17;;;;;10.80;100515.00;;;;5021792;28;20236;-71
2022/01/03 06:21:01;;;;;;;20.33;4.07;;;;;10.80;100515.00;;;;5021253;28;20303;-72
2022/01/03 06:23:48;;;;;;;13.77;2.20;;;;;10.70;100513.00;;;;5014406;28;20608;-71
2022/01/03 06:26:34;;;;;;;16.00;2.27;;;;;10.70;100509.00;;;;5025503;28;20241;-70
2022/01/03 06:29:20;;;;;;;10.27;2.00;;;;;10.70;100513.00;;;;5025682;28;20233;-70
2022/01/03 06:32:08;;;;;;;12.17;2.40;;;;;10.70;100509.00;;;;5028542;28;20637;-71
2022/01/03 06:34:54;;;;;;;9.23;2.10;;;;;10.70;100509.00;;;;5016140;28;20245;-71
2022/01/03 06:37:40;;;;;;;14.20;2.40;;;;;10.70;100510.00;;;;5025191;28;20228;-72
2022/01/03 06:40:27;;;;;;;13.57;2.27;;;;;10.70;100517.00;;;;5023321;28;20364;-72
2022/01/03 06:43:13;;;;;;;11.03;2.03;;;;;10.70;100524.00;;;;5000791;28;20229;-71
2022/01/03 06:45:59;;;;;;;13.83;2.33;;;;;10.70;100516.00;;;;5000974;28;20254;-71
2022/01/03 06:48:49;;;;;;;12.40;2.43;;;;;10.70;100513.00;;;;4987972;28;20947;-70
2022/01/03 06:51:35;;;;;;;60.50;24.50;;;;;10.80;100506.00;;;;4988435;28;20714;-70
2022/01/03 06:54:21;;;;;;;19.37;3.20;;;;;10.70;100507.00;;;;4995212;28;20792;-71
2022/01/03 06:57:08;;;;;;;8.93;2.20;;;;;10.80;100515.00;;;;4993430;28;20241;-71
2022/01/03 06:59:54;;;;;;;14.20;2.20;;;;;10.60;100515.00;;;;4985663;28;20244;-71
2022/01/03 07:02:42;;;;;;;7.00;1.83;;;;;10.70;100513.00;;;;5022162;28;20234;-72
2022/01/03 07:05:31;;;;;;;8.67;2.17;;;;;10.60;100503.00;;;;5010573;28;20314;-71
2022/01/03 07:08:20;;;;;;;18.10;2.20;;;;;10.50;100515.00;;;;5009842;28;20618;-71
2022/01/03 07:11:06;;;;;;;11.07;2.33;;;;;10.50;100510.00;;;;5012095;28;20230;-71
2022/01/03 07:18:55;;;;;;;15.33;2.40;;;;;10.60;100520.00;;;;5002182;28;20237;-71
2022/01/03 07:20:07;;;;;;;12.47;2.40;;;;;10.50;100521.00;;;;5011968;28;20327;-71
2022/01/03 07:22:54;;;;;;;10.67;2.60;;;;;10.50;100520.00;;;;5008448;28;20279;-72
2022/01/03 07:25:41;;;;;;;14.83;2.73;;;;;10.50;100514.00;;;;5008951;28;20261;-69
2022/01/03 07:28:27;;;;;;;8.63;2.27;;;;;10.60;100526.00;;;;5008611;28;20693;-72
2022/01/03 07:31:14;;;;;;;13.43;2.90;;;;;10.60;100530.00;;;;5012109;28;20253;-72
2022/01/03 07:34:00;;;;;;;11.73;2.67;;;;;10.60;100516.00;;;;5002592;28;20409;-71
2022/01/03 07:36:46;;;;;;;10.57;2.40;;;;;10.60;100516.00;;;;5020555;28;20758;-71
2022/01/03 07:39:34;;;;;;;8.13;2.20;;;;;10.60;100514.00;;;;5022598;28;20364;-72
2022/01/03 07:42:20;;;;;;;12.57;2.23;;;;;10.60;100513.00;;;;5024558;28;20235;-71
2022/01/03 07:45:07;;;;;;;59.93;23.50;;;;;10.60;100513.00;;;;5036211;28;20229;-71
2022/01/03 07:47:54;;;;;;;15.37;4.10;;;;;10.60;100505.00;;;;5021947;28;20237;-70
2022/01/03 07:50:41;;;;;;;8.57;2.20;;;;;10.60;100498.00;;;;5028035;28;20276;-71
2022/01/03 07:53:27;;;;;;;10.10;2.30;;;;;10.80;100499.00;;;;5028027;28;20226;-71
2022/01/03 07:56:15;;;;;;;14.63;2.67;;;;;10.80;100489.00;;;;5028591;28;20774;-72
2022/01/03 07:59:01;;;;;;;12.00;2.63;;;;;10.70;100507.00;;;;5015762;28;20708;-69
2022/01/03 08:01:47;;;;;;;11.37;2.10;;;;;10.70;100504.00;;;;5016539;28;20257;-71
2022/01/03 08:04:35;;;;;;;12.10;2.37;;;;;10.70;100505.00;;;;5020879;28;20245;-71
2022/01/03 08:07:22;;;;;;;8.20;2.20;;;;;10.70;100509.00;;;;5023526;28;20240;-68
2022/01/03 08:10:10;;;;;;;14.50;2.37;;;;;10.80;100509.00;;;;5019091;28;20226;-72
2022/01/03 08:12:57;;;;;;;7.20;2.23;;;;;10.80;100514.00;;;;5021380;28;20237;-70
2022/01/03 08:15:44;;;;;;;14.77;2.30;;;;;10.90;100515.00;;;;5016221;28;20240;-72
2022/01/03 08:18:32;;;;;;;14.13;2.67;;;;;10.90;100526.00;;;;5019003;28;20233;-71
2022/01/03 08:21:19;;;;;;;14.07;2.60;;;;;10.80;100500.00;;;;5022248;28;20228;-71
2022/01/03 08:24:06;;;;;;;37.30;15.90;;;;;11.00;100522.00;;;;5021733;28;20226;-72
2022/01/03 08:26:52;;;;;;;16.67;4.07;;;;;10.90;100532.00;;;;5025072;28;20292;-72
2022/01/03 08:29:40;;;;;;;11.70;2.67;;;;;10.90;100523.00;;;;5031755;28;20266;-73
2022/01/03 08:32:27;;;;;;;11.03;2.20;;;;;10.80;100507.00;;;;5029377;28;20237;-73
2022/01/03 08:35:13;;;;;;;12.50;2.07;;;;;11.00;100515.00;;;;5017066;28;20369;-72
2022/01/03 08:38:04;;;;;;;7.63;1.90;;;;;10.80;100524.00;;;;5016122;28;20224;-71
2022/01/03 08:40:51;;;;;;;9.53;2.20;;;;;10.80;100518.00;;;;5017611;28;20232;-71
2022/01/03 08:43:37;;;;;;;5.20;2.10;;;;;10.80;100517.00;;;;5014400;28;20359;-72
2022/01/03 08:46:25;;;;;;;5.73;2.13;;;;;10.90;100530.00;;;;5020309;28;20246;-72
2022/01/03 08:49:12;;;;;;;5.07;1.87;;;;;10.90;100537.00;;;;5019395;28;20427;-72
2022/01/03 08:52:00;;;;;;;9.83;2.20;;;;;10.80;100524.00;;;;5038925;28;20279;-72
2022/01/03 08:54:46;;;;;;;10.80;2.13;;;;;11.00;100524.00;;;;5019462;28;20225;-71
2022/01/03 08:57:32;;;;;;;9.20;2.30;;;;;11.00;100526.00;;;;5026701;28;20244;-70
2022/01/03 09:00:20;;;;;;;8.47;2.03;;;;;11.00;100533.00;;;;5026061;28;20729;-70
2022/01/03 09:03:08;;;;;;;9.77;2.23;;;;;11.10;100520.00;;;;5022504;28;20229;-71
2022/01/03 09:05:54;;;;;;;7.20;2.20;;;;;11.00;100515.00;;;;5021627;28;20241;-71
2022/01/03 09:08:40;;;;;;;8.73;2.00;;;;;10.90;100521.00;;;;5026163;28;20224;-70
2022/01/03 09:11:27;;;;;;;6.77;2.00;;;;;11.00;100521.00;;;;5026096;28;20287;-69
2022/01/03 09:14:14;;;;;;;13.60;2.67;;;;;11.00;100512.00;;;;5026796;28;20295;-70
2022/01/03 09:17:01;;;;;;;12.70;2.33;;;;;11.00;100524.00;;;;5020660;28;20249;-71
2022/01/03 09:19:49;;;;;;;10.53;2.50;;;;;10.90;100525.00;;;;5024893;28;20244;-71
2022/01/03 09:22:44;;;;;;;10.40;2.60;;;;;11.00;100531.00;;;;5018187;28;20238;-70
2022/01/03 09:28:51;;;;;;;10.90;2.17;;;;;11.10;100510.00;;;;5026599;28;20276;-71
2022/01/03 09:31:38;;;;;;;8.07;2.60;;;;;11.10;100492.00;;;;5016338;28;20227;-71
2022/01/03 09:34:25;;;;;;;12.97;2.93;;;;;11.00;100518.00;;;;5035102;28;20231;-70
2022/01/03 09:37:17;;;;;;;11.37;4.07;;;;;11.10;100506.00;;;;5030348;28;20260;-72
2022/01/03 09:40:05;;;;;;;24.77;8.83;;;;;11.00;100517.00;;;;5020600;28;20229;-68
2022/01/03 09:42:58;;;;;;;22.77;8.93;;;;;11.10;100505.00;;;;5023160;28;20233;-70
2022/01/03 09:45:47;;;;;;;16.13;3.17;;;;;11.20;100512.00;;;;5034280;28;21194;-71
2022/01/03 09:48:36;;;;;;;8.30;2.50;;;;;11.20;100509.00;;;;5024923;28;20308;-69
2022/01/03 09:51:23;;;;;;;9.20;2.47;;;;;11.20;100510.00;;;;5023249;28;20221;-70
2022/01/03 09:54:14;;;;;;;7.40;2.60;;;;;11.20;100512.00;;;;5023656;28;20228;-72
2022/01/03 09:57:03;;;;;;;13.07;2.60;;;;;11.10;100501.00;;;;5024296;28;20999;-72
2022/01/03 09:59:50;;;;;;;10.37;3.10;;;;;11.10;100509.00;;;;5033820;28;20240;-72
2022/01/03 10:02:37;;;;;;;14.23;2.57;;;;;11.10;100508.00;;;;5019471;28;20364;-73
2022/01/03 10:05:23;;;;;;;41.20;17.37;;;;;11.10;100499.00;;;;5014892;28;20299;-71
2022/01/03 10:08:10;;;;;;;12.80;3.20;;;;;11.20;100495.00;;;;5017768;28;20321;-69
2022/01/03 10:10:58;;;;;;;11.43;3.27;;;;;11.20;100511.00;;;;5027731;28;20227;-71
2022/01/03 10:13:44;;;;;;;13.40;2.70;;;;;11.30;100476.00;;;;5022748;28;20734;-72
2022/01/03 10:16:31;;;;;;;16.90;3.20;;;;;11.30;100482.00;;;;5033091;28;20760;-70
2022/01/03 10:19:31;;;;;;;9.13;2.33;;;;;11.40;100490.00;;;;5010933;28;20224;-71
2022/01/03 10:22:24;;;;;;;17.57;2.60;;;;;11.30;100481.00;;;;5037377;28;20276;-72
2022/01/03 10:25:17;;;;;;;10.70;2.70;;;;;11.30;100458.00;;;;5020879;28;20238;-72
2022/01/03 10:28:10;;;;;;;15.87;2.67;;;;;11.40;100457.00;;;;5027245;28;20240;-72
2022/01/03 10:30:56;;;;;;;17.87;7.47;;;;;11.50;100479.00;;;;5026348;28;20245;-72
2022/01/03 10:33:43;;;;;;;9.37;3.00;;;;;11.40;100465.00;;;;5015368;28;21184;-73
2022/01/03 10:36:31;;;;;;;16.40;3.20;;;;;11.40;100466.00;;;;5022278;28;20810;-73
2022/01/03 10:39:19;;;;;;;7.47;2.30;;;;;11.30;100462.00;;;;5020199;28;20300;-71
2022/01/03 10:42:16;;;;;;;13.53;3.10;;;;;11.40;100476.00;;;;5019824;28;20712;-72
2022/01/03 10:45:05;;;;;;;6.87;2.77;;;;;11.40;100460.00;;;;5021316;28;20237;-73
2022/01/03 10:47:51;;;;;;;13.70;2.80;;;;;11.30;100465.00;;;;5018962;28;25064;-72
2022/01/03 10:50:45;;;;;;;14.63;2.73;;;;;11.30;100456.00;;;;5025100;28;20228;-72
2022/01/03 10:53:36;;;;;;;6.57;2.53;;;;;11.30;100464.00;;;;5025565;28;20280;-73
2022/01/03 10:56:28;;;;;;;11.23;2.53;;;;;11.30;100456.00;;;;5025111;28;20252;-70
2022/01/03 10:59:25;;;;;;;7.73;2.47;;;;;11.50;100456.00;;;;5019605;28;20229;-73
2022/01/03 11:02:13;;;;;;;11.40;2.40;;;;;11.30;100445.00;;;;5023074;28;20280;-73
2022/01/03 11:05:08;;;;;;;12.30;3.07;;;;;11.20;100455.00;;;;5019743;28;20234;-73
2022/01/03 11:11:09;;;;;;;12.73;2.93;;;;;11.40;100453.00;;;;5018139;28;20724;-73
2022/01/03 11:13:55;;;;;;;11.37;2.50;;;;;11.50;100452.00;;;;5018847;28;20291;-71
2022/01/03 11:16:42;;;;;;;10.47;2.60;;;;;11.50;100451.00;;;;5023647;28;20244;-73
2022/01/03 11:19:37;;;;;;;14.33;3.30;;;;;11.40;100450.00;;;;5024851;28;20357;-74
2022/01/03 11:22:41;;;;;;;10.20;2.83;;;;;11.30;100450.00;;;;5024687;28;20233;-73
2022/01/03 11:25:30;;;;;;;10.03;2.53;;;;;11.40;100433.00;;;;5022761;28;20334;-72
2022/01/03 11:28:17;;;;;;;7.20;2.37;;;;;11.40;100433.00;;;;5024758;28;20296;-74
2022/01/03 11:31:04;;;;;;;9.50;2.90;;;;;11.30;100439.00;;;;5024837;28;20718;-69
2022/01/03 11:33:52;;;;;;;14.80;2.87;;;;;11.40;100433.00;;;;5020800;28;20228;-73
2022/01/03 11:37:01;;;;;;;10.90;2.53;;;;;11.40;100411.00;;;;5013197;28;20737;-73
2022/01/03 11:39:48;;;;;;;6.73;2.27;;;;;11.50;100411.00;;;;5017513;28;20784;-72
2022/01/03 11:42:36;;;;;;;7.63;2.40;;;;;11.40;100411.00;;;;5024182;28;20229;-73
2022/01/03 11:45:23;;;;;;;9.77;2.50;;;;;11.50;100401.00;;;;5026011;28;20973;-71
2022/01/03 11:48:11;;;;;;;14.63;2.60;;;;;11.40;100405.00;;;;5026612;28;20225;-71
2022/01/03 11:51:02;;;;;;;13.73;3.00;;;;;11.30;100402.00;;;;5022400;28;20233;-74
2022/01/03 11:53:51;;;;;;;8.30;2.60;;;;;11.40;100397.00;;;;5022417;28;20262;-70
2022/01/03 11:56:43;;;;;;;12.13;2.83;;;;;11.40;100385.00;;;;5026896;28;20248;-70
2022/01/03 12:03:36;;;;;;;9.43;2.67;;;;;11.40;100390.00;;;;5026391;28;20294;-71
2022/01/03 12:05:45;;;;;;;11.27;2.60;;;;;11.50;100381.00;;;;5023139;28;20319;-71
2022/01/03 12:08:33;;;;;;;11.60;2.50;;;;;11.60;100386.00;;;;5028612;28;20327;-72
2022/01/03 12:11:22;;;;;;;10.13;2.50;;;;;11.70;100375.00;;;;5008135;28;20226;-71
2022/01/03 12:14:10;;;;;;;7.40;2.30;;;;;11.80;100360.00;;;;5041296;28;20235;-71
2022/01/03 12:17:05;;;;;;;14.33;2.73;;;;;12.00;100370.00;;;;5020277;28;20260;-71
2022/01/03 12:20:03;;;;;;;10.23;2.60;;;;;12.00;100369.00;;;;5018032;28;20314;-69
2022/01/03 12:22:51;;;;;;;11.00;2.63;;;;;12.10;100360.00;;;;5021141;28;20261;-71
2022/01/03 12:25:39;;;;;;;12.40;2.57;;;;;12.10;100362.00;;;;5027332;28;20748;-71
2022/01/03 12:28:27;;;;;;;7.90;2.50;;;;;12.10;100350.00;;;;5023989;28;20608;-71
2022/01/03 12:31:13;;;;;;;13.87;2.30;;;;;12.00;100354.00;;;;5031113;28;20229;-72
2022/01/03 12:34:18;;;;;;;12.70;2.50;;;;;11.90;100357.00;;;;5020573;28;20649;-71
2022/01/03 12:37:26;;;;;;;8.13;2.33;;;;;11.90;100341.00;;;;5021948;28;20616;-69
2022/01/03 12:40:14;;;;;;;10.07;2.40;;;;;11.90;100350.00;;;;5022137;28;20296;-71
2022/01/03 12:43:03;;;;;;;9.40;2.67;;;;;11.80;100348.00;;;;5026636;28;20229;-71
2022/01/03 12:45:54;;;;;;;10.13;2.20;;;;;11.70;100339.00;;;;5024206;28;20233;-72
2022/01/03 12:48:41;;;;;;;10.43;2.50;;;;;11.90;100345.00;;;;5027591;28;20349;-72
2022/01/03 12:51:38;;;;;;;8.07;2.30;;;;;11.80;100351.00;;;;5026010;28;20291;-70
2022/01/03 12:54:40;;;;;;;12.37;2.20;;;;;11.70;100331.00;;;;5024831;28;21100;-72
2022/01/03 12:57:30;;;;;;;10.47;2.87;;;;;11.70;100320.00;;;;5023036;28;20844;-71
2022/01/03 13:00:41;;;;;;;8.47;2.50;;;;;11.80;100311.00;;;;5027313;28;20249;-69
2022/01/03 13:03:31;;;;;;;12.00;2.40;;;;;11.80;100301.00;;;;5022207;28;20233;-69
2022/01/03 13:06:19;;;;;;;12.57;2.47;;;;;11.70;100294.00;;;;5023638;28;20244;-71
2022/01/03 13:09:09;;;;;;;11.57;2.53;;;;;11.80;100293.00;;;;5020494;28;20629;-69
2022/01/03 13:11:59;;;;;;;14.50;2.50;;;;;11.70;100293.00;;;;5019955;28;20247;-72
2022/01/03 13:14:45;;;;;;;12.60;2.40;;;;;11.70;100292.00;;;;5023926;28;20237;-73
2022/01/03 13:17:32;;;;;;;16.33;2.83;;;;;11.70;100287.00;;;;5006947;28;20269;-73
2022/01/03 13:20:25;;;;;;;6.63;2.17;;;;;11.60;100279.00;;;;5002483;28;20320;-72
2022/01/03 13:23:12;;;;;;;12.27;2.40;;;;;11.60;100276.00;;;;5009182;28;20274;-72
2022/01/03 13:26:02;;;;;;;9.50;2.33;;;;;11.60;100271.00;;;;4999629;28;20923;-74
2022/01/03 13:28:50;;;;;;;10.87;2.37;;;;;11.60;100271.00;;;;4999393;28;20230;-72
2022/01/03 13:31:40;;;;;;;13.10;2.50;;;;;11.50;100258.00;;;;5005090;28;20234;-72
2022/01/03 13:34:29;;;;;;;6.27;2.13;;;;;11.60;100251.00;;;;5026184;28;20225;-74
2022/01/03 13:37:22;;;;;;;8.23;2.17;;;;;11.40;100272.00;;;;5031798;28;20245;-73
2022/01/03 13:40:11;;;;;;;10.57;2.40;;;;;11.30;100252.00;;;;5033643;28;20245;-74
2022/01/03 13:43:00;;;;;;;6.73;1.90;;;;;11.40;100267.00;;;;5028830;28;20226;-74
2022/01/03 13:51:56;;;;;;;10.77;2.20;;;;;11.30;100268.00;;;;5051718;28;20225;-72
2022/01/03 13:54:44;;;;;;;7.17;1.80;;;;;11.10;100256.00;;;;5054717;28;20213;-73
2022/01/03 13:57:34;;;;;;;6.07;2.00;;;;;11.20;100252.00;;;;5053435;28;20232;-74
2022/01/03 14:00:21;;;;;;;7.37;2.07;;;;;11.20;100242.00;;;;5047394;28;20235;-73
2022/01/03 14:03:07;;;;;;;6.20;2.20;;;;;11.20;100245.00;;;;5021751;28;20264;-72
2022/01/03 14:06:15;;;;;;;4.97;2.33;;;;;11.10;100248.00;;;;5024352;28;20326;-72